Time,TemperatureF,DewpointF,PressureIn,WindDirection,WindDirectionDegrees,WindSpeedMPH,WindSpeedGustMPH,Humidity,HourlyPrecipIn,Conditions,Clouds,dailyrainin,SoftwareType,DateUTC
2013-02-21 00:08:00,42.3,37.0,30.02,NNE,29,0.0,-999.0,80,-99.99,,,0.00,weatherlink.com 1.10,2013-02-21 06:08:00,
2013-02-21 00:23:00,43.0,36.0,30.01,ENE,59,0.0,-999.0,75,-99.99,,,0.00,weatherlink.com 1.10,2013-02-21 06:23:00,
2013-02-21 00:38:00,43.2,35.0,30.01,ENE,59,0.0,-999.0,74,-99.99,,,0.00,weatherlink.com 1.10,2013-02-21 06:38:00,
2013-02-21 00:54:00,42.1,36.0,30.01,ENE,59,0.0,-999.0,78,-99.99,,,0.00,weatherlink.com 1.10,2013-02-21 06:54:00,
2013-02-21 01:09:00,41.3,36.0,30.01,ENE,59,0.0,-999.0,80,-99.99,,,0.00,weatherlink.com 1.10,2013-02-21 07:09:00,
2013-02-21 01:24:00,40.8,35.0,30.01,ENE,59,0.0,-999.0,80,-99.99,,,0.00,weatherlink.com 1.10,2013-02-21 07:24:00,
2013-02-21 01:39:00,40.3,35.0,30.02,ENE,59,0.0,-999.0,81,-99.99,,,0.00,weatherlink.com 1.10,2013-02-21 07:39:00,
2013-02-21 01:54:00,39.9,35.0,30.01,ENE,59,0.0,-999.0,81,-99.99,,,0.00,weatherlink.com 1.10,2013-02-21 07:54:00,
2013-02-21 02:09:00,39.5,34.0,30.01,ENE,59,0.0,-999.0,82,-99.99,,,0.00,weatherlink.com 1.10,2013-02-21 08:09:00,
2013-02-21 02:24:00,39.9,34.0,30.00,NE,49,4.0,-999.0,80,-99.99,,,0.00,weatherlink.com 1.10,2013-02-21 08:24:00,
2013-02-21 02:39:00,40.8,34.0,29.99,NE,55,3.0,-999.0,78,-99.99,,,0.00,weatherlink.com 1.10,2013-02-21 08:39:00,
2013-02-21 02:54:00,41.8,35.0,29.99,NE,42,1.0,-999.0,76,-99.99,,,0.00,weatherlink.com 1.10,2013-02-21 08:54:00,
2013-02-21 03:10:00,41.7,35.0,29.98,NE,40,4.0,-999.0,76,-99.99,,,0.00,weatherlink.com 1.10,2013-02-21 09:10:00,
2013-02-21 03:25:00,41.4,34.0,29.98,NE,46,1.0,-999.0,75,-99.99,,,0.00,weatherlink.com 1.10,2013-02-21 09:25:00,
2013-02-21 03:40:00,41.2,34.0,29.98,NE,55,3.0,-999.0,76,-99.99,,,0.00,weatherlink.com 1.10,2013-02-21 09:40:00,
2013-02-21 03:55:00,41.2,34.0,29.98,NE,34,5.0,-999.0,75,-99.99,,,0.00,weatherlink.com 1.10,2013-02-21 09:55:00,
2013-02-21 04:10:00,41.1,34.0,29.98,ENE,69,3.0,-999.0,76,-99.99,,,0.00,weatherlink.com 1.10,2013-02-21 10:10:00,
2013-02-21 04:25:00,41.5,34.0,29.98,NE,34,6.0,-999.0,74,-99.99,,,0.00,weatherlink.com 1.10,2013-02-21 10:25:00,
2013-02-21 04:40:00,41.7,34.0,29.99,NE,50,0.0,-999.0,74,-99.99,,,0.00,weatherlink.com 1.10,2013-02-21 10:40:00,
2013-02-21 04:55:00,41.5,34.0,29.99,NE,49,2.0,-999.0,75,-99.99,,,0.00,weatherlink.com 1.10,2013-02-21 10:55:00,
2013-02-21 05:10:00,41.4,34.0,29.99,NE,46,2.0,-999.0,74,-99.99,,,0.00,weatherlink.com 1.10,2013-02-21 11:10:00,
2013-02-21 05:25:00,41.9,34.0,29.99,NNE,26,5.0,-999.0,73,-99.99,,,0.00,weatherlink.com 1.10,2013-02-21 11:25:00,
2013-02-21 05:40:00,42.4,34.0,30.01,NE,52,1.0,-999.0,71,-99.99,,,0.00,weatherlink.com 1.10,2013-02-21 11:40:00,
2013-02-21 05:55:00,43.3,34.0,30.00,ENE,61,3.0,-999.0,70,-99.99,,,0.00,weatherlink.com 1.10,2013-02-21 11:55:00,
2013-02-21 06:11:00,43.2,34.0,30.01,NNE,32,3.0,-999.0,71,-99.99,,,0.00,weatherlink.com 1.10,2013-02-21 12:11:00,
2013-02-21 06:26:00,43.5,34.0,30.02,NE,46,1.0,-999.0,70,-99.99,,,0.00,weatherlink.com 1.10,2013-02-21 12:26:00,
2013-02-21 06:41:00,44.0,35.0,30.03,ENE,64,5.0,-999.0,70,-99.99,,,0.00,weatherlink.com 1.10,2013-02-21 12:41:00,
2013-02-21 06:56:00,45.2,35.0,30.02,NE,54,10.0,-999.0,67,-99.99,,,0.00,weatherlink.com 1.10,2013-02-21 12:56:00,
2013-02-21 07:11:00,46.5,35.0,30.04,ENE,67,2.0,-999.0,65,-99.99,,,0.00,weatherlink.com 1.10,2013-02-21 13:11:00,
2013-02-21 07:26:00,48.1,35.0,30.04,East,90,3.0,-999.0,62,-99.99,,,0.00,weatherlink.com 1.10,2013-02-21 13:26:00,
2013-02-21 07:56:00,48.5,36.0,30.04,ENE,67,4.0,-999.0,63,-99.99,,,0.00,weatherlink.com 1.10,2013-02-21 13:56:00,
2013-02-21 08:11:00,48.7,36.0,30.04,NE,53,5.0,-999.0,61,-99.99,,,0.00,weatherlink.com 1.10,2013-02-21 14:11:00,
2013-02-21 08:29:00,48.8,37.0,30.03,ENE,64,12.0,-999.0,63,-99.99,,,0.00,weatherlink.com 1.10,2013-02-21 14:29:00,
2013-02-21 08:42:00,49.1,37.0,30.04,NE,51,7.0,-999.0,63,-99.99,,,0.00,weatherlink.com 1.10,2013-02-21 14:42:00,
2013-02-21 08:57:00,49.7,36.0,30.04,ENE,74,4.0,-999.0,60,-99.99,,,0.00,weatherlink.com 1.10,2013-02-21 14:57:00,
2013-02-21 09:12:00,50.7,37.0,30.04,ENE,71,9.0,-999.0,60,-99.99,,,0.00,weatherlink.com 1.10,2013-02-21 15:12:00,
2013-02-21 09:27:00,51.5,37.0,30.05,ENE,59,5.0,-999.0,58,-99.99,,,0.00,weatherlink.com 1.10,2013-02-21 15:27:00,
2013-02-21 09:42:00,51.9,37.0,30.04,ENE,63,7.0,-999.0,57,-99.99,,,0.00,weatherlink.com 1.10,2013-02-21 15:42:00,
2013-02-21 09:57:00,52.6,38.0,30.04,ENE,77,5.0,-999.0,57,-99.99,,,0.00,weatherlink.com 1.10,2013-02-21 15:57:00,
2013-02-21 10:12:00,53.5,38.0,30.05,NE,34,5.0,-999.0,56,-99.99,,,0.00,weatherlink.com 1.10,2013-02-21 16:12:00,
2013-02-21 10:27:00,54.3,37.0,30.04,ENE,69,9.0,-999.0,53,-99.99,,,0.00,weatherlink.com 1.10,2013-02-21 16:27:00,
2013-02-21 10:43:00,54.9,38.0,30.03,East,93,5.0,-999.0,54,-99.99,,,0.00,weatherlink.com 1.10,2013-02-21 16:43:00,
2013-02-21 10:58:00,55.9,38.0,30.02,East,87,5.0,-999.0,52,-99.99,,,0.00,weatherlink.com 1.10,2013-02-21 16:58:00,
2013-02-21 11:13:00,57.5,38.0,30.00,East,85,11.0,-999.0,48,-99.99,,,0.00,weatherlink.com 1.10,2013-02-21 17:13:00,
2013-02-21 11:28:00,58.4,38.0,29.98,ESE,104,12.0,-999.0,47,-99.99,,,0.00,weatherlink.com 1.10,2013-02-21 17:28:00,
2013-02-21 11:43:00,58.7,39.0,29.99,East,100,6.0,-999.0,48,-99.99,,,0.00,weatherlink.com 1.10,2013-02-21 17:43:00,
2013-02-21 11:58:00,59.0,39.0,29.97,East,96,6.0,-999.0,48,-99.99,,,0.00,weatherlink.com 1.10,2013-02-21 17:58:00,
2013-02-21 12:13:00,59.5,42.0,29.96,East,101,7.0,-999.0,52,-99.99,,,0.00,weatherlink.com 1.10,2013-02-21 18:13:00,
2013-02-21 12:28:00,59.9,43.0,29.96,ESE,117,4.0,-999.0,54,-99.99,,,0.00,weatherlink.com 1.10,2013-02-21 18:28:00,
2013-02-21 12:43:00,60.9,42.0,29.95,ESE,113,5.0,-999.0,51,-99.99,,,0.00,weatherlink.com 1.10,2013-02-21 18:43:00,
2013-02-21 12:59:00,61.4,44.0,29.94,ESE,115,7.0,-999.0,53,-99.99,,,0.00,weatherlink.com 1.10,2013-02-21 18:59:00,
2013-02-21 13:14:00,60.6,47.0,29.94,SE,127,11.0,-999.0,61,-99.99,,,0.00,weatherlink.com 1.10,2013-02-21 19:14:00,
2013-02-21 13:29:00,60.1,48.0,29.93,SE,139,14.0,-999.0,65,-99.99,,,0.00,weatherlink.com 1.10,2013-02-21 19:29:00,
2013-02-21 13:44:00,60.1,49.0,29.92,SE,137,11.0,-999.0,68,-99.99,,,0.00,weatherlink.com 1.10,2013-02-21 19:44:00,
2013-02-21 13:59:00,60.5,50.0,29.92,SE,134,8.0,-999.0,68,-99.99,,,0.00,weatherlink.com 1.10,2013-02-21 19:59:00,
2013-02-21 14:14:00,60.3,51.0,29.91,SE,137,15.0,-999.0,72,-99.99,,,0.00,weatherlink.com 1.10,2013-02-21 20:14:00,
2013-02-21 14:29:00,59.9,52.0,29.91,SE,140,12.0,-999.0,76,-99.99,,,0.00,weatherlink.com 1.10,2013-02-21 20:29:00,
2013-02-21 14:44:00,60.4,53.0,29.91,SE,144,10.0,-999.0,76,-99.99,,,0.00,weatherlink.com 1.10,2013-02-21 20:44:00,
2013-02-21 14:59:00,60.4,54.0,29.91,SE,143,10.0,-999.0,78,-99.99,,,0.00,weatherlink.com 1.10,2013-02-21 20:59:00,
2013-02-21 15:14:00,61.1,54.0,29.90,SE,146,11.0,-999.0,78,-99.99,,,0.00,weatherlink.com 1.10,2013-02-21 21:14:00,
2013-02-21 15:30:00,60.5,55.0,29.89,SE,138,9.0,-999.0,81,-99.99,,,0.00,weatherlink.com 1.10,2013-02-21 21:30:00,
2013-02-21 15:45:00,61.0,55.0,29.89,SE,134,11.0,-999.0,81,-99.99,,,0.00,weatherlink.com 1.10,2013-02-21 21:45:00,
2013-02-21 16:00:00,60.6,55.0,29.89,SE,141,9.0,-999.0,82,-99.99,,,0.00,weatherlink.com 1.10,2013-02-21 22:00:00,
2013-02-21 16:15:00,60.1,56.0,29.88,SE,139,9.0,-999.0,85,-99.99,,,0.00,weatherlink.com 1.10,2013-02-21 22:15:00,
2013-02-21 16:29:00,60.4,56.0,29.88,SE,132,10.0,-999.0,86,-99.99,,,0.00,weatherlink.com 1.10,2013-02-21 22:29:00,
2013-02-21 16:45:00,61.0,57.0,29.88,SE,128,9.0,-999.0,86,-99.99,,,0.00,weatherlink.com 1.10,2013-02-21 22:45:00,
2013-02-21 17:00:00,61.2,57.0,29.88,SE,133,6.0,-999.0,86,-99.99,,,0.00,weatherlink.com 1.10,2013-02-21 23:00:00,
2013-02-21 17:15:00,61.3,57.0,29.88,ESE,121,10.0,-999.0,87,-99.99,,,0.00,weatherlink.com 1.10,2013-02-21 23:15:00,
2013-02-21 17:30:00,61.5,57.0,29.88,SE,127,9.0,-999.0,86,-99.99,,,0.00,weatherlink.com 1.10,2013-02-21 23:30:00,
2013-02-21 17:45:00,61.7,58.0,29.88,SE,128,10.0,-999.0,87,-99.99,,,0.00,weatherlink.com 1.10,2013-02-21 23:45:00,
2013-02-21 18:00:00,61.7,58.0,29.88,ESE,122,5.0,-999.0,87,-99.99,,,0.00,weatherlink.com 1.10,2013-02-22 00:00:00,
2013-02-21 18:15:00,61.7,58.0,29.88,ESE,115,9.0,-999.0,88,-99.99,,,0.00,weatherlink.com 1.10,2013-02-22 00:15:00,
2013-02-21 18:30:00,62.1,58.0,29.88,ESE,123,14.0,-999.0,87,-99.99,,,0.00,weatherlink.com 1.10,2013-02-22 00:30:00,
2013-02-21 18:45:00,62.3,58.0,29.88,SE,129,11.0,-999.0,87,-99.99,,,0.00,weatherlink.com 1.10,2013-02-22 00:45:00,
2013-02-21 19:01:00,62.0,59.0,29.88,SE,128,11.0,-999.0,88,-99.99,,,0.00,weatherlink.com 1.10,2013-02-22 01:01:00,
2013-02-21 19:16:00,61.8,59.0,29.89,SSE,153,12.0,-999.0,89,-99.99,,,0.00,weatherlink.com 1.10,2013-02-22 01:16:00,
2013-02-21 19:31:00,60.8,58.0,29.90,SSE,148,7.0,-999.0,91,-99.99,,,0.00,weatherlink.com 1.10,2013-02-22 01:31:00,
2013-02-21 19:46:00,60.8,59.0,29.90,SE,136,8.0,-999.0,93,-99.99,,,0.00,weatherlink.com 1.10,2013-02-22 01:46:00,
2013-02-21 20:01:00,60.6,59.0,29.90,SE,141,10.0,-999.0,94,-99.99,,,0.00,weatherlink.com 1.10,2013-02-22 02:01:00,
2013-02-21 20:16:00,60.3,59.0,29.91,SE,138,8.0,-999.0,94,-99.99,,,0.00,weatherlink.com 1.10,2013-02-22 02:16:00,
2013-02-21 20:31:00,60.5,59.0,29.90,SE,134,10.0,-999.0,95,-99.99,,,0.00,weatherlink.com 1.10,2013-02-22 02:31:00,
2013-02-21 20:46:00,60.7,60.0,29.91,SE,132,9.0,-999.0,96,-99.99,,,0.00,weatherlink.com 1.10,2013-02-22 02:46:00,
2013-02-21 21:01:00,60.7,60.0,29.90,SE,128,11.0,-999.0,96,-99.99,,,0.00,weatherlink.com 1.10,2013-02-22 03:01:00,
2013-02-21 21:16:00,60.6,60.0,29.90,SE,133,12.0,-999.0,97,-99.99,,,0.00,weatherlink.com 1.10,2013-02-22 03:16:00,
2013-02-21 21:31:00,60.6,60.0,29.89,SE,132,11.0,-999.0,97,-99.99,,,0.00,weatherlink.com 1.10,2013-02-22 03:31:00,
2013-02-21 21:46:00,60.7,60.0,29.89,SE,131,12.0,-999.0,97,-99.99,,,0.00,weatherlink.com 1.10,2013-02-22 03:46:00,
2013-02-21 22:17:00,60.9,60.0,29.88,SE,136,13.0,-999.0,97,-99.99,,,0.00,weatherlink.com 1.10,2013-02-22 04:17:00,
2013-02-21 22:32:00,60.7,60.0,29.88,SE,135,10.0,-999.0,97,-99.99,,,0.00,weatherlink.com 1.10,2013-02-22 04:32:00,
2013-02-21 22:47:00,61.0,61.0,29.89,SE,139,10.0,-999.0,98,-99.99,,,0.00,weatherlink.com 1.10,2013-02-22 04:47:00,
2013-02-21 23:02:00,61.2,60.0,29.89,SE,138,10.0,-999.0,97,-99.99,,,0.00,weatherlink.com 1.10,2013-02-22 05:02:00,
2013-02-21 23:17:00,61.3,61.0,29.88,SE,133,11.0,-999.0,97,-99.99,,,0.00,weatherlink.com 1.10,2013-02-22 05:17:00,
2013-02-21 23:32:00,62.0,61.0,29.88,ESE,119,9.0,-999.0,97,-99.99,,,0.00,weatherlink.com 1.10,2013-02-22 05:32:00,
2013-02-21 23:47:00,62.0,61.0,29.88,SE,139,8.0,-999.0,97,-99.99,,,0.00,weatherlink.com 1.10,2013-02-22 05:47:00,